createdAt,value
2022-12-08T00:01:13.578Z,12.66
2022-12-08T00:03:40.577Z,12.65
2022-12-08T00:06:32.232Z,12.65
2022-12-08T00:09:17.888Z,12.65
2022-12-08T00:11:44.377Z,12.61
2022-12-08T00:14:10.958Z,12.60
2022-12-08T00:16:37.556Z,12.61
2022-12-08T00:19:04.181Z,12.61
2022-12-08T00:21:30.731Z,12.62
2022-12-08T00:23:57.392Z,12.60
2022-12-08T00:26:23.966Z,12.60
2022-12-08T00:28:50.535Z,12.59
2022-12-08T00:31:17.435Z,12.59
2022-12-08T00:33:44.422Z,12.58
2022-12-08T00:36:13.562Z,12.56
2022-12-08T00:38:41.400Z,12.56
2022-12-08T00:41:13.257Z,12.54
2022-12-08T00:43:40.373Z,12.50
2022-12-08T00:46:07.273Z,12.50
2022-12-08T00:48:33.954Z,12.49
2022-12-08T00:51:00.646Z,12.50
2022-12-08T00:53:27.390Z,12.48
2022-12-08T00:55:54.136Z,12.50
2022-12-08T00:58:20.801Z,12.51
2022-12-08T01:00:47.577Z,12.50
2022-12-08T01:03:14.218Z,12.50
2022-12-08T01:06:31.672Z,12.52
2022-12-08T01:08:58.469Z,12.49
2022-12-08T01:11:25.176Z,12.47
2022-12-08T01:13:51.885Z,12.44
2022-12-08T01:16:24.520Z,12.47
2022-12-08T01:18:51.439Z,12.46
2022-12-08T01:21:18.843Z,12.45
2022-12-08T01:23:46.022Z,12.44
2022-12-08T01:26:15.578Z,12.41
2022-12-08T01:28:42.794Z,12.40
2022-12-08T01:31:14.392Z,12.41
2022-12-08T01:33:41.613Z,12.42
2022-12-08T01:36:17.859Z,12.43
2022-12-08T01:38:44.500Z,12.40
2022-12-08T01:41:15.132Z,12.40
2022-12-08T01:44:08.349Z,12.40
2022-12-08T01:46:37.790Z,12.35
2022-12-08T01:49:27.300Z,12.37
2022-12-08T01:52:25.243Z,12.36
2022-12-08T01:55:06.350Z,12.35
2022-12-08T01:57:42.931Z,12.34
2022-12-08T02:00:12.939Z,12.33
2022-12-08T02:03:04.593Z,12.33
2022-12-08T02:05:34.770Z,12.28
2022-12-08T02:08:06.843Z,12.27
2022-12-08T02:10:37.415Z,12.25
2022-12-08T02:13:07.314Z,12.25
2022-12-08T02:15:46.081Z,12.28
2022-12-08T02:19:14.772Z,12.27
2022-12-08T02:21:42.045Z,12.25
2022-12-08T02:24:45.001Z,12.27
2022-12-08T02:27:44.356Z,12.24
2022-12-08T02:30:31.938Z,12.24
2022-12-08T02:33:07.336Z,12.20
2022-12-08T02:35:55.629Z,12.15
2022-12-08T02:38:25.207Z,12.14
2022-12-08T02:40:54.990Z,12.16
2022-12-08T02:43:33.745Z,12.18
2022-12-08T02:46:04.614Z,12.18
2022-12-08T02:48:33.764Z,12.18
2022-12-08T02:51:01.123Z,12.19
2022-12-08T02:53:32.088Z,12.17
2022-12-08T02:56:07.661Z,12.18
2022-12-08T02:59:26.116Z,12.18
2022-12-08T03:02:38.810Z,12.15
2022-12-08T03:05:11.820Z,12.14
2022-12-08T03:07:46.459Z,12.13
2022-12-08T03:10:25.683Z,12.14
2022-12-08T03:13:00.086Z,12.13
2022-12-08T03:15:27.692Z,12.13
2022-12-08T03:17:58.895Z,12.14
2022-12-08T03:20:27.916Z,12.14
2022-12-08T03:22:58.556Z,12.16
2022-12-08T03:25:30.532Z,12.14
2022-12-08T03:27:57.490Z,12.10
2022-12-08T03:30:24.161Z,12.08
2022-12-08T03:33:03.885Z,12.03
2022-12-08T03:35:33.255Z,12.06
2022-12-08T03:38:15.145Z,12.06
2022-12-08T03:40:42.729Z,12.07
2022-12-08T03:43:09.345Z,12.06
2022-12-08T03:45:36.412Z,12.04
2022-12-08T03:48:03.404Z,12.02
2022-12-08T03:50:30.022Z,12.03
2022-12-08T03:52:56.550Z,12.04
2022-12-08T03:55:23.171Z,12.03
2022-12-08T03:57:49.764Z,12.03
2022-12-08T04:00:17.392Z,12.02
2022-12-08T04:02:44.605Z,12.01
2022-12-08T04:05:11.280Z,12.01
2022-12-08T04:07:38.267Z,12.01
2022-12-08T04:10:05.767Z,12.00
2022-12-08T04:12:32.939Z,11.99
2022-12-08T04:14:59.502Z,11.98
2022-12-08T04:17:26.347Z,11.97
2022-12-08T04:19:52.935Z,11.96
2022-12-08T04:22:19.705Z,11.95
2022-12-08T04:24:46.424Z,11.96
2022-12-08T04:27:13.129Z,11.98
2022-12-08T04:29:39.707Z,11.97
2022-12-08T04:32:06.278Z,11.97
2022-12-08T04:34:32.891Z,11.97
2022-12-08T04:36:59.389Z,11.95
2022-12-08T04:39:26.128Z,11.93
2022-12-08T04:41:52.667Z,11.93
2022-12-08T04:44:19.315Z,11.91
2022-12-08T04:46:46.062Z,11.95
2022-12-08T04:49:12.855Z,11.93
2022-12-08T04:51:39.621Z,11.94
2022-12-08T04:54:06.176Z,11.93
2022-12-08T04:56:32.704Z,11.91
2022-12-08T04:58:59.203Z,11.91
2022-12-08T05:01:25.789Z,11.92
2022-12-08T05:03:52.806Z,11.91
2022-12-08T05:06:19.471Z,11.91
2022-12-08T05:08:46.028Z,11.95
2022-12-08T05:11:13.549Z,11.94
2022-12-08T05:13:40.418Z,11.97
2022-12-08T05:16:13.000Z,11.99
2022-12-08T05:18:41.420Z,11.99
2022-12-08T05:21:09.183Z,12.00
2022-12-08T05:23:36.040Z,12.01
2022-12-08T05:26:02.725Z,12.03
2022-12-08T05:28:44.852Z,12.04
2022-12-08T05:31:14.061Z,12.02
2022-12-08T05:33:41.338Z,12.07
2022-12-08T05:36:09.424Z,12.05
2022-12-08T05:38:36.116Z,12.09
2022-12-08T05:41:02.758Z,12.08
2022-12-08T05:43:29.453Z,12.10
2022-12-08T05:45:56.096Z,12.11
2022-12-08T05:48:22.693Z,12.13
2022-12-08T05:50:50.418Z,12.15
2022-12-08T05:53:19.096Z,12.15
2022-12-08T05:55:46.390Z,12.15
2022-12-08T05:58:18.668Z,12.17
2022-12-08T06:00:46.971Z,12.18
2022-12-08T06:03:14.985Z,12.18
2022-12-08T06:05:43.483Z,12.21
2022-12-08T06:08:10.400Z,12.21
2022-12-08T06:10:44.993Z,12.22
2022-12-08T06:13:12.184Z,12.21
2022-12-08T06:15:39.436Z,12.23
2022-12-08T06:18:07.297Z,12.25
2022-12-08T06:20:35.043Z,12.22
2022-12-08T06:23:02.185Z,12.24
2022-12-08T06:25:28.998Z,12.26
2022-12-08T06:27:55.625Z,12.23
2022-12-08T06:30:22.308Z,12.25
2022-12-08T06:32:48.976Z,12.26
2022-12-08T06:35:15.631Z,12.28
2022-12-08T06:37:42.295Z,12.31
2022-12-08T06:40:09.347Z,12.30
2022-12-08T06:42:45.142Z,12.30
2022-12-08T06:45:14.048Z,12.32
2022-12-08T06:47:41.095Z,12.33
2022-12-08T06:50:08.636Z,12.32
2022-12-08T06:52:40.833Z,12.34
2022-12-08T06:55:29.119Z,12.33
2022-12-08T06:57:59.516Z,12.34
2022-12-08T07:00:26.049Z,12.35
2022-12-08T07:02:52.638Z,12.34
2022-12-08T07:05:19.314Z,12.34
2022-12-08T07:07:45.938Z,12.36
2022-12-08T07:10:12.654Z,12.37
2022-12-08T07:12:39.280Z,12.39
2022-12-08T07:15:06.492Z,12.37
2022-12-08T07:17:32.980Z,12.39
2022-12-08T07:19:59.467Z,12.43
2022-12-08T07:22:25.948Z,12.44
2022-12-08T07:24:52.529Z,12.44
2022-12-08T07:27:19.030Z,12.47
2022-12-08T07:29:45.640Z,12.47
2022-12-08T07:32:18.132Z,12.46
2022-12-08T07:34:47.094Z,12.49
2022-12-08T07:37:13.925Z,12.50
2022-12-08T07:39:40.766Z,12.50
2022-12-08T07:42:07.439Z,12.51
2022-12-08T07:44:34.425Z,12.52
2022-12-08T07:47:01.214Z,12.52
2022-12-08T07:49:27.827Z,12.50
2022-12-08T07:51:54.417Z,12.49
2022-12-08T07:54:21.079Z,12.55
2022-12-08T07:56:48.012Z,12.53
2022-12-08T07:59:14.836Z,12.56
2022-12-08T08:01:45.174Z,12.54
2022-12-08T08:04:12.643Z,12.55
2022-12-08T08:06:39.449Z,12.55
2022-12-08T08:09:06.366Z,12.55
2022-12-08T08:11:33.201Z,12.55
2022-12-08T08:13:59.788Z,12.53
2022-12-08T08:16:26.592Z,12.55
2022-12-08T08:18:53.356Z,12.58
2022-12-08T08:24:07.309Z,12.58
2022-12-08T08:26:34.237Z,12.60
2022-12-08T08:29:00.813Z,12.61
2022-12-08T08:31:28.142Z,12.63
2022-12-08T08:33:56.815Z,12.74
2022-12-08T08:36:23.484Z,12.73
2022-12-08T08:38:50.072Z,12.78
2022-12-08T08:41:16.739Z,12.81
2022-12-08T08:43:43.541Z,12.81
2022-12-08T08:46:10.342Z,12.85
2022-12-08T08:48:37.697Z,12.85
2022-12-08T08:51:12.397Z,12.90
2022-12-08T08:53:39.463Z,12.83
2022-12-08T08:56:13.964Z,12.97
2022-12-08T08:58:41.397Z,12.99
2022-12-08T09:01:08.247Z,13.03
2022-12-08T09:03:34.899Z,13.05
2022-12-08T09:06:01.653Z,13.05
2022-12-08T09:08:28.362Z,13.07
2022-12-08T09:10:55.027Z,13.52
2022-12-08T09:13:22.454Z,14.03
2022-12-08T09:15:49.379Z,14.22
2022-12-08T09:18:16.074Z,14.32
2022-12-08T09:20:42.736Z,14.32
2022-12-08T09:23:09.275Z,14.34
2022-12-08T09:25:35.880Z,14.37
2022-12-08T09:28:03.613Z,14.37
2022-12-08T09:30:30.187Z,14.45
2022-12-08T09:32:56.721Z,14.53
2022-12-08T09:35:23.336Z,14.60
2022-12-08T09:37:49.870Z,14.63
2022-12-08T09:40:20.403Z,14.68
2022-12-08T09:43:12.481Z,14.71
2022-12-08T09:45:39.520Z,14.76
2022-12-08T09:48:14.152Z,14.75
2022-12-08T09:50:52.503Z,14.77
2022-12-08T09:53:32.043Z,14.85
2022-12-08T09:56:11.130Z,14.88
2022-12-08T09:58:51.821Z,14.90
2022-12-08T10:01:20.464Z,14.92
2022-12-08T10:03:48.024Z,14.93
2022-12-08T10:06:29.795Z,14.98
2022-12-08T10:09:33.395Z,15.01
2022-12-08T10:12:22.122Z,14.99
2022-12-08T10:14:56.088Z,15.01
2022-12-08T10:17:28.636Z,15.05
2022-12-08T10:20:02.428Z,15.07
2022-12-08T10:22:35.887Z,15.04
2022-12-08T10:25:15.454Z,15.06
2022-12-08T10:27:42.024Z,15.01
2022-12-08T10:30:13.783Z,14.96
2022-12-08T10:32:42.280Z,14.98
2022-12-08T10:35:14.680Z,14.95
2022-12-08T10:37:41.823Z,14.93
2022-12-08T10:40:08.591Z,14.93
2022-12-08T10:42:48.624Z,14.93
2022-12-08T10:45:27.585Z,14.89
2022-12-08T10:48:16.888Z,14.88
2022-12-08T10:50:54.577Z,14.92
2022-12-08T10:53:24.119Z,14.95
2022-12-08T10:56:02.855Z,14.98
2022-12-08T10:58:36.628Z,14.94
2022-12-08T11:01:06.177Z,14.86
2022-12-08T11:03:47.796Z,14.79
2022-12-08T11:06:29.428Z,14.84
2022-12-08T11:08:58.441Z,14.95
2022-12-08T11:11:48.093Z,15.02
2022-12-08T11:14:38.017Z,15.07
2022-12-08T11:17:14.532Z,15.10
2022-12-08T11:19:44.076Z,15.06
2022-12-08T11:22:32.501Z,15.00
2022-12-08T11:25:08.139Z,14.96
2022-12-08T11:27:36.933Z,14.92
2022-12-08T11:30:14.944Z,14.90
2022-12-08T11:32:45.092Z,14.89
2022-12-08T11:35:26.992Z,14.93
2022-12-08T11:38:13.468Z,14.94
2022-12-08T11:40:44.626Z,14.94
2022-12-08T11:43:36.834Z,14.99
2022-12-08T11:46:23.840Z,14.95
2022-12-08T11:49:06.211Z,14.88
2022-12-08T11:51:37.749Z,14.85
2022-12-08T11:54:14.077Z,14.98
2022-12-08T11:56:51.496Z,15.04
2022-12-08T11:59:30.334Z,15.09
2022-12-08T12:02:01.956Z,15.08
2022-12-08T12:04:46.916Z,15.05
2022-12-08T12:07:30.225Z,15.02
2022-12-08T12:10:15.662Z,15.01
2022-12-08T12:12:51.104Z,15.03
2022-12-08T12:15:28.092Z,15.03
2022-12-08T12:18:33.781Z,15.02
2022-12-08T12:21:10.721Z,15.03
2022-12-08T12:23:42.881Z,15.07
2022-12-08T12:26:19.873Z,15.12
2022-12-08T12:28:46.805Z,15.14
2022-12-08T12:31:16.940Z,15.15
2022-12-08T12:33:46.635Z,15.17
2022-12-08T12:36:15.179Z,15.14
2022-12-08T12:39:01.532Z,15.15
2022-12-08T12:41:32.897Z,14.90
2022-12-08T12:44:24.007Z,14.75
2022-12-08T12:46:50.548Z,14.67
2022-12-08T12:49:38.644Z,14.64
2022-12-08T12:52:31.015Z,14.64
2022-12-08T12:54:57.688Z,14.63
2022-12-08T12:57:35.233Z,14.58
2022-12-08T13:00:01.838Z,14.56
2022-12-08T13:02:39.635Z,14.55
2022-12-08T13:05:30.331Z,14.52
2022-12-08T13:08:16.445Z,14.49
2022-12-08T13:11:11.702Z,14.47
2022-12-08T13:13:39.360Z,14.42
2022-12-08T13:16:20.633Z,14.44
2022-12-08T13:18:52.301Z,14.40
2022-12-08T13:21:20.006Z,14.43
2022-12-08T13:24:14.508Z,14.73
2022-12-08T13:27:03.011Z,14.88
2022-12-08T13:29:31.570Z,14.95
2022-12-08T13:31:58.238Z,14.96
2022-12-08T13:34:46.457Z,14.99
2022-12-08T13:37:15.808Z,15.05
2022-12-08T13:39:51.107Z,15.10
2022-12-08T13:42:29.575Z,15.19
2022-12-08T13:45:24.200Z,15.23
2022-12-08T13:48:31.157Z,15.25
2022-12-08T13:53:22.546Z,15.19
2022-12-08T13:57:30.574Z,15.19
2022-12-08T14:00:01.485Z,15.23
2022-12-08T14:02:46.986Z,15.26
2022-12-08T14:05:19.143Z,15.26
2022-12-08T14:08:02.684Z,15.28
2022-12-08T14:10:32.122Z,15.29
2022-12-08T14:13:05.567Z,15.31
2022-12-08T14:15:37.624Z,15.31
2022-12-08T14:18:07.156Z,15.34
2022-12-08T14:20:51.946Z,15.34
2022-12-08T14:23:21.855Z,15.38
2022-12-08T14:25:48.595Z,15.39
2022-12-08T14:28:15.906Z,15.39
2022-12-08T14:30:42.631Z,15.38
2022-12-08T14:33:14.615Z,15.40
2022-12-08T14:35:41.266Z,15.38
2022-12-08T14:38:17.261Z,15.33
2022-12-08T14:41:04.875Z,15.33
2022-12-08T14:43:32.734Z,15.33
2022-12-08T14:46:06.248Z,15.37
2022-12-08T14:48:38.654Z,15.39
2022-12-08T14:51:22.974Z,15.34
2022-12-08T14:53:54.524Z,15.30
2022-12-08T14:56:23.045Z,15.27
2022-12-08T14:59:03.079Z,15.20
2022-12-08T15:01:30.448Z,15.19
2022-12-08T15:04:17.952Z,15.17
2022-12-08T15:06:47.752Z,15.15
2022-12-08T15:09:17.885Z,13.56
2022-12-08T15:11:44.528Z,14.39
2022-12-08T15:14:34.588Z,14.65
2022-12-08T15:17:01.634Z,14.71
2022-12-08T15:19:31.928Z,14.73
2022-12-08T15:22:09.190Z,14.71
2022-12-08T15:24:35.889Z,14.69
2022-12-08T15:27:04.036Z,14.68
2022-12-08T15:29:31.257Z,14.67
2022-12-08T15:32:01.040Z,14.67
2022-12-08T15:34:27.962Z,14.68
2022-12-08T15:36:55.270Z,14.35
2022-12-08T15:39:32.874Z,14.57
2022-12-08T15:42:00.967Z,14.60
2022-12-08T15:44:29.233Z,14.56
2022-12-08T15:46:56.192Z,14.53
2022-12-08T15:49:24.272Z,14.49
2022-12-08T15:51:57.366Z,14.45
2022-12-08T15:54:31.501Z,14.41
2022-12-08T15:59:45.228Z,14.39
2022-12-08T16:02:16.692Z,14.38
2022-12-08T16:05:33.367Z,14.36
2022-12-08T16:07:38.364Z,14.38
2022-12-08T16:10:06.882Z,14.37
2022-12-08T16:16:00.883Z,14.36
2022-12-08T16:18:34.468Z,14.34
2022-12-08T16:21:41.906Z,14.30
2022-12-08T16:23:48.688Z,14.29
2022-12-08T16:26:44.036Z,14.28
2022-12-08T16:29:06.381Z,14.24
2022-12-08T16:31:33.456Z,14.22
2022-12-08T16:34:00.462Z,14.20
2022-12-08T16:36:27.058Z,14.20
2022-12-08T16:38:53.741Z,14.19
2022-12-08T16:41:38.958Z,14.18
2022-12-08T16:44:06.575Z,14.13
2022-12-08T16:46:33.666Z,14.12
2022-12-08T16:49:00.569Z,14.12
2022-12-08T16:51:27.715Z,14.12
2022-12-08T16:53:58.530Z,14.10
2022-12-08T16:56:32.283Z,14.06
2022-12-08T16:59:00.341Z,14.08
2022-12-08T17:01:26.990Z,14.06
2022-12-08T17:04:22.533Z,14.01
2022-12-08T17:06:40.373Z,13.99
2022-12-08T17:09:06.934Z,13.98
2022-12-08T17:11:37.728Z,13.99
2022-12-08T17:14:09.191Z,13.98
2022-12-08T17:16:35.988Z,13.97
2022-12-08T17:19:02.915Z,13.99
2022-12-08T17:21:29.901Z,13.99
2022-12-08T17:23:56.506Z,14.00
2022-12-08T17:26:23.072Z,13.97
2022-12-08T17:29:06.062Z,13.95
2022-12-08T17:31:33.194Z,13.87
2022-12-08T17:34:04.431Z,13.80
2022-12-08T17:36:31.804Z,13.80
2022-12-08T17:39:02.296Z,13.77
2022-12-08T17:41:29.932Z,13.77
2022-12-08T17:43:57.010Z,13.73
2022-12-08T17:46:24.407Z,13.70
2022-12-08T17:48:51.438Z,13.71
2022-12-08T17:51:18.311Z,13.69
2022-12-08T17:53:45.079Z,13.69
2022-12-08T17:56:21.863Z,13.66
2022-12-08T17:58:54.414Z,13.68
2022-12-08T18:01:23.460Z,13.65
2022-12-08T18:03:50.590Z,13.64
2022-12-08T18:06:17.889Z,13.62
2022-12-08T18:08:45.037Z,13.60
2022-12-08T18:11:14.847Z,13.60
2022-12-08T18:13:41.588Z,13.58
2022-12-08T18:16:08.350Z,13.57
2022-12-08T18:18:35.082Z,13.55
2022-12-08T18:21:01.676Z,13.54
2022-12-08T18:23:28.260Z,13.52
2022-12-08T18:25:55.051Z,13.51
2022-12-08T18:28:21.705Z,13.50
2022-12-08T18:30:48.366Z,13.51
2022-12-08T18:33:14.995Z,13.48
2022-12-08T18:35:41.618Z,13.48
2022-12-08T18:38:08.208Z,13.49
2022-12-08T18:40:34.959Z,13.49
2022-12-08T18:43:01.617Z,13.49
2022-12-08T18:45:28.261Z,13.47
2022-12-08T18:47:54.907Z,13.47
2022-12-08T18:50:21.529Z,13.48
2022-12-08T18:52:48.850Z,13.44
2022-12-08T18:55:15.740Z,13.45
2022-12-08T18:57:43.316Z,13.40
2022-12-08T19:00:15.785Z,13.43
2022-12-08T19:02:42.821Z,13.41
2022-12-08T19:05:11.696Z,13.39
2022-12-08T19:07:38.880Z,13.38
2022-12-08T19:10:06.927Z,13.37
2022-12-08T19:12:33.934Z,13.35
2022-12-08T19:15:00.675Z,13.36
2022-12-08T19:17:29.695Z,13.36
2022-12-08T19:19:56.339Z,13.34
2022-12-08T19:22:22.902Z,13.33
2022-12-08T19:24:49.505Z,13.30
2022-12-08T19:27:16.216Z,13.30
2022-12-08T19:29:42.761Z,13.26
2022-12-08T19:32:09.303Z,13.25
2022-12-08T19:34:35.910Z,13.24
2022-12-08T19:37:02.441Z,13.22
2022-12-08T19:39:47.449Z,13.21
2022-12-08T19:42:39.525Z,13.21
2022-12-08T19:45:14.559Z,13.22
2022-12-08T19:47:42.110Z,13.16
2022-12-08T19:50:29.745Z,13.17
2022-12-08T19:52:57.557Z,13.14
2022-12-08T19:55:25.385Z,13.14
2022-12-08T19:57:53.141Z,13.12
2022-12-08T20:00:21.323Z,13.12
2022-12-08T20:02:48.058Z,13.10
2022-12-08T20:05:15.114Z,13.06
2022-12-08T20:07:41.894Z,13.06
2022-12-08T20:10:21.894Z,13.05
2022-12-08T20:12:48.511Z,13.05
2022-12-08T20:15:15.264Z,13.05
2022-12-08T20:17:42.932Z,13.03
2022-12-08T20:20:10.833Z,13.05
2022-12-08T20:22:37.705Z,13.03
2022-12-08T20:25:04.512Z,13.02
2022-12-08T20:27:31.404Z,12.99
2022-12-08T20:29:58.041Z,12.99
2022-12-08T20:32:24.861Z,13.00
2022-12-08T20:34:51.634Z,12.96
2022-12-08T20:37:19.647Z,12.94
2022-12-08T20:39:47.078Z,12.93
2022-12-08T20:42:14.071Z,12.94
2022-12-08T20:44:44.515Z,12.92
2022-12-08T20:47:13.113Z,12.93
2022-12-08T20:49:40.024Z,12.88
2022-12-08T20:52:07.154Z,12.91
2022-12-08T20:54:34.350Z,12.89
2022-12-08T20:57:01.685Z,12.90
2022-12-08T20:59:28.872Z,12.89
2022-12-08T21:01:55.701Z,12.88
2022-12-08T21:04:23.385Z,12.87
2022-12-08T21:06:50.308Z,12.85
2022-12-08T21:09:17.600Z,12.85
2022-12-08T21:11:45.098Z,12.88
2022-12-08T21:14:12.309Z,12.88
2022-12-08T21:16:39.217Z,12.88
2022-12-08T21:19:06.678Z,12.87
2022-12-08T21:21:33.821Z,12.86
2022-12-08T21:24:01.082Z,12.87
2022-12-08T21:26:27.788Z,12.85
2022-12-08T21:28:57.893Z,12.85
2022-12-08T21:31:29.387Z,12.88
2022-12-08T21:33:56.129Z,12.85
2022-12-08T21:36:22.937Z,12.87
2022-12-08T21:38:50.314Z,12.86
2022-12-08T21:41:39.372Z,12.87
2022-12-08T21:44:07.661Z,12.88
2022-12-08T21:46:34.387Z,12.86
2022-12-08T21:49:01.869Z,12.85
2022-12-08T21:51:28.653Z,12.85
2022-12-08T21:53:55.378Z,12.81
2022-12-08T21:56:22.719Z,12.82
2022-12-08T21:58:49.819Z,12.82
2022-12-08T22:01:16.610Z,12.81
2022-12-08T22:03:43.546Z,12.81
2022-12-08T22:06:12.747Z,12.80
2022-12-08T22:08:40.364Z,12.82
2022-12-08T22:11:08.084Z,12.81
2022-12-08T22:13:36.744Z,12.80
2022-12-08T22:16:06.187Z,12.86
2022-12-08T22:18:33.921Z,12.71
2022-12-08T22:21:00.891Z,12.63
2022-12-08T22:23:28.825Z,12.60
2022-12-08T22:25:57.993Z,12.57
2022-12-08T22:28:26.046Z,12.56
2022-12-08T22:30:52.759Z,12.53
2022-12-08T22:33:20.293Z,12.53
2022-12-08T22:35:57.968Z,12.49
2022-12-08T22:38:25.059Z,12.50
2022-12-08T22:40:52.278Z,12.44
2022-12-08T22:43:19.075Z,12.48
2022-12-08T22:45:45.712Z,12.45
2022-12-08T22:48:12.958Z,12.45
2022-12-08T22:50:40.127Z,12.43
2022-12-08T22:53:06.947Z,12.41
2022-12-08T22:55:33.588Z,12.43
2022-12-08T22:58:00.354Z,12.42
2022-12-08T23:00:27.039Z,12.38
2022-12-08T23:02:53.694Z,12.39
2022-12-08T23:05:20.682Z,12.40
2022-12-08T23:07:47.482Z,12.39
2022-12-08T23:10:14.149Z,12.36
2022-12-08T23:12:40.755Z,12.37
2022-12-08T23:15:07.960Z,12.35
2022-12-08T23:17:34.805Z,12.36
2022-12-08T23:20:01.764Z,12.35
2022-12-08T23:22:28.359Z,12.34
2022-12-08T23:24:54.901Z,12.32
2022-12-08T23:27:21.510Z,12.33
2022-12-08T23:29:48.086Z,12.32
2022-12-08T23:32:15.050Z,12.31
2022-12-08T23:34:41.860Z,12.31
2022-12-08T23:37:08.439Z,12.32
2022-12-08T23:39:35.322Z,12.32
2022-12-08T23:42:02.137Z,12.30
2022-12-08T23:44:28.750Z,12.26
2022-12-08T23:46:55.557Z,12.28
2022-12-08T23:49:23.479Z,12.25
2022-12-08T23:51:50.817Z,12.26
2022-12-08T23:54:18.058Z,12.23
2022-12-08T23:56:44.838Z,12.22
2022-12-08T23:59:11.423Z,12.23
